MAPA DE AEROPUERTO

INFORMACIÓN METAR y TAF

METAR FOR LEBL
ADDS - METARS form results

(1357 UTC 09 August 2020)
Data provider http://aviationweather.gov/metar/data/
 
METAR text: LEBL 091330Z 16005KT 100V220 9999 FEW030 30/20 Q1015 NOSIG
Conditions at: LEBL (BARCELONA AIRPOR, ES) observed 1330 UTC 09 August 2020
Temperature: 30.0°C (86°F)
Dewpoint: 20.0°C (68°F) [RH = 55%]
Pressure (altimeter): 29.97 inches Hg (1015.0 mb)
Winds: from the SSE (160 degrees) at 6 MPH (5 knots; 2.6 m/s)
Visibility: 6 or more miles (10+ km)
Ceiling: at least 12,000 feet AGL
Clouds: few clouds at 3000 feet AGL
Weather: no significant weather observed at this time

METAR text: LEBL 091300Z 16006KT 120V230 9999 FEW030 30/21 Q1015 NOSIG
Conditions at: LEBL (BARCELONA AIRPOR, ES) observed 1300 UTC 09 August 2020
Temperature: 30.0°C (86°F)
Dewpoint: 21.0°C (70°F) [RH = 59%]
Pressure (altimeter): 29.97 inches Hg (1015.0 mb)
Winds: from the SSE (160 degrees) at 7 MPH (6 knots; 3.1 m/s)
Visibility: 6 or more miles (10+ km)
Ceiling: at least 12,000 feet AGL
Clouds: few clouds at 3000 feet AGL
Weather: no significant weather observed at this time

Forecast for: LEBL (BARCELONA AIRPOR, ES)
Text: TAF LEBL 091100Z 0912/1012 12007KT 9999 FEW030 TX31/0913Z TN23/1005Z
Forecast period: 1200 to 1800 UTC 09 August 2020
Forecast type: FROM: standard forecast or significant change
Winds: from the ESE (120 degrees) at 8 MPH (7 knots; 3.6 m/s)
Visibility: 6 or more miles (10+ km)
Ceiling: at least 12,000 feet AGL
Clouds: few clouds at 3000 feet AGL
Weather: no significant weather forecast for this period
Text: TEMPO 0912/0918 22010KT
Forecast period: 1200 to 1800 UTC 09 August 2020
Forecast type: TEMPORARY: The following changes expected for less than half the time period
Winds: from the SW (220 degrees) at 12 MPH (10 knots; 5.1 m/s)
Visibility: missing
Ceiling: unknown
Clouds: missing
Weather: no significant weather forecast for this period
Text: BECMG 0918/0920 VRB04KT
Forecast period: 1800 UTC 09 August 2020 to 0900 UTC 10 August 2020
Forecast type: BECOMING: Conditions expected to become as follows by 2000 UTC 09 August 2020
Winds: variable direction winds at 5 MPH (4 knots; 2.1 m/s)
Visibility: 6 or more miles (10+ km)
Ceiling: at least 12,000 feet AGL
Clouds: few clouds at 3000 feet AGL
Weather: no significant weather forecast for this period
Text: BECMG 1009/1011 22010KT
Forecast period: 0900 to 1200 UTC 10 August 2020
Forecast type: BECOMING: Conditions expected to become as follows by 1100 UTC 10 August 2020
Winds: from the SW (220 degrees) at 12 MPH (10 knots; 5.1 m/s)
Visibility: 6 or more miles (10+ km)
Ceiling: at least 12,000 feet AGL
Clouds: few clouds at 3000 feet AGL
Weather: no significant weather forecast for this period